Time;durP1;ratioP1;P1;durP2;ratioP2;P2;SDS_P1;SDS_P2;PMS_P1;PMS_P2;Temp;Humidity;BMP_temperature;BMP_pressure;BME280_temperature;BME280_humidity;BME280_pressure;Samples;Min_cycle;Max_cycle;Signal;HPM_P1;HPM_P2
2022/09/15 00:02:24;;;;;;;229.77;65.97;;;12.50;99.90;;;;;;5002429;28;20029;-70
2022/09/15 00:04:51;;;;;;;206.50;64.97;;;12.50;99.90;;;;;;5006449;28;20587;-70
2022/09/15 00:07:18;;;;;;;238.27;69.45;;;12.60;99.90;;;;;;5007856;28;20034;-70
2022/09/15 00:09:44;;;;;;;212.48;65.45;;;12.50;99.90;;;;;;5023378;28;20049;-71
2022/09/15 00:12:11;;;;;;;208.85;65.88;;;12.50;99.90;;;;;;5004423;28;20053;-70
2022/09/15 00:14:38;;;;;;;191.85;63.97;;;12.60;99.90;;;;;;5002679;28;20053;-71
2022/09/15 00:17:05;;;;;;;237.02;67.55;;;12.70;99.90;;;;;;5005429;28;20107;-70
2022/09/15 00:19:31;;;;;;;199.40;63.80;;;12.80;99.90;;;;;;5025055;28;20049;-71
2022/09/15 00:21:58;;;;;;;223.65;66.47;;;12.80;99.90;;;;;;4988319;28;20038;-71
2022/09/15 00:24:25;;;;;;;211.10;67.65;;;12.80;99.90;;;;;;5004132;28;20491;-70
2022/09/15 00:26:51;;;;;;;208.77;67.65;;;12.80;99.90;;;;;;5026116;28;20040;-70
2022/09/15 00:29:18;;;;;;;213.55;67.53;;;12.80;99.90;;;;;;5023553;28;20047;-71
2022/09/15 00:31:45;;;;;;;222.88;67.28;;;12.80;99.90;;;;;;5007109;28;20045;-69
2022/09/15 00:34:12;;;;;;;184.48;61.92;;;12.90;99.90;;;;;;5004513;28;20080;-70
2022/09/15 00:36:39;;;;;;;201.98;61.65;;;12.90;99.90;;;;;;5022039;28;20073;-70
2022/09/15 00:39:06;;;;;;;172.15;55.22;;;12.90;99.90;;;;;;5003089;28;20045;-70
2022/09/15 00:41:33;;;;;;;167.30;55.78;;;12.90;99.90;;;;;;5019045;28;20038;-71
2022/09/15 00:44:03;;;;;;;163.43;53.17;;;12.90;99.90;;;;;;5008637;28;20422;-71
2022/09/15 00:46:35;;;;;;;181.95;54.67;;;12.80;99.90;;;;;;5001934;28;20097;-70
2022/09/15 00:49:14;;;;;;;189.63;55.47;;;12.80;99.90;;;;;;5022465;28;20049;-71
2022/09/15 00:51:49;;;;;;;187.32;52.45;;;12.80;99.90;;;;;;5028279;28;20052;-71
2022/09/15 00:54:27;;;;;;;172.75;51.45;;;12.70;99.90;;;;;;5013549;28;20241;-71
2022/09/15 00:56:57;;;;;;;177.98;51.10;;;12.80;99.90;;;;;;5010045;28;20423;-70
2022/09/15 00:59:27;;;;;;;311.73;56.88;;;12.70;99.90;;;;;;5021225;28;20041;-71
2022/09/15 01:02:07;;;;;;;255.63;51.13;;;12.60;99.90;;;;;;5019773;28;20164;-71
2022/09/15 01:04:34;;;;;;;481.15;68.95;;;12.40;99.90;;;;;;5023180;28;20049;-71
2022/09/15 01:07:03;;;;;;;585.90;73.75;;;12.40;99.90;;;;;;5024422;28;20026;-71
2022/09/15 01:09:44;;;;;;;284.05;61.20;;;12.40;99.90;;;;;;5024438;28;20052;-70
2022/09/15 01:12:10;;;;;;;236.32;57.53;;;12.40;99.90;;;;;;5003822;28;20041;-70
2022/09/15 01:14:37;;;;;;;219.18;56.92;;;12.50;99.90;;;;;;5004390;28;20071;-71
2022/09/15 01:17:28;;;;;;;201.93;54.88;;;12.60;99.90;;;;;;5022008;28;20048;-71
2022/09/15 01:20:14;;;;;;;216.65;56.30;;;12.60;99.90;;;;;;5022118;28;20052;-69
2022/09/15 01:22:59;;;;;;;202.27;56.72;;;12.60;99.90;;;;;;5020517;28;20037;-72
2022/09/15 01:25:48;;;;;;;205.15;57.75;;;12.50;99.90;;;;;;5017796;28;20045;-70
2022/09/15 01:28:38;;;;;;;234.05;58.67;;;12.50;99.90;;;;;;5021469;28;20045;-72
2022/09/15 01:31:25;;;;;;;217.40;54.78;;;12.50;99.90;;;;;;5018635;28;20407;-70
2022/09/15 01:33:52;;;;;;;243.48;57.97;;;12.40;99.90;;;;;;5019686;28;20047;-71
2022/09/15 01:36:22;;;;;;;222.43;57.10;;;12.40;99.90;;;;;;5056756;22;21095;-71
2022/09/15 01:39:04;;;;;;;259.45;56.97;;;12.40;99.90;;;;;;5034296;28;20605;-71
2022/09/15 01:41:47;;;;;;;239.30;60.38;;;12.50;99.90;;;;;;5034618;28;20040;-70
2022/09/15 01:44:20;;;;;;;242.45;59.83;;;12.50;99.90;;;;;;5035980;28;20037;-71
2022/09/15 01:46:51;;;;;;;222.25;56.80;;;12.50;99.90;;;;;;5015974;28;20044;-70
2022/09/15 01:49:22;;;;;;;230.77;60.63;;;12.60;99.90;;;;;;5017125;28;20342;-70
2022/09/15 01:51:53;;;;;;;245.45;59.65;;;12.50;99.90;;;;;;5018520;28;20056;-70
2022/09/15 01:54:26;;;;;;;219.45;56.95;;;12.40;99.90;;;;;;5015831;28;20060;-70
2022/09/15 01:56:53;;;;;;;212.48;61.75;;;12.50;99.90;;;;;;5019647;28;20069;-70
2022/09/15 01:59:20;;;;;;;207.15;56.25;;;12.50;99.90;;;;;;4996510;28;20037;-70
2022/09/15 02:02:03;;;;;;;205.52;54.55;;;12.50;99.90;;;;;;4995216;28;20041;-70
2022/09/15 02:04:38;;;;;;;206.88;52.78;;;12.40;99.90;;;;;;5014646;28;20056;-70
2022/09/15 02:07:25;;;;;;;188.30;53.42;;;12.30;99.90;;;;;;5018842;28;20045;-70
2022/09/15 02:10:10;;;;;;;197.65;56.03;;;12.40;99.90;;;;;;5016509;28;20133;-70
2022/09/15 02:12:51;;;;;;;196.55;56.47;;;12.50;99.90;;;;;;5016704;28;20038;-70
2022/09/15 02:15:26;;;;;;;233.75;58.58;;;12.50;99.90;;;;;;5015820;28;20507;-70
2022/09/15 02:17:54;;;;;;;203.60;57.00;;;12.50;99.90;;;;;;5018896;28;20068;-70
2022/09/15 02:20:49;;;;;;;202.23;55.83;;;12.40;99.90;;;;;;4999043;28;20059;-68
2022/09/15 02:23:25;;;;;;;211.85;58.90;;;12.50;99.90;;;;;;4999611;28;20059;-69
2022/09/15 02:25:54;;;;;;;;;;;12.40;99.90;;;;;;5018383;28;20435;-68
2022/09/15 02:28:28;;;;;;;204.45;56.83;;;12.50;99.90;;;;;;5013856;28;19920;-68
2022/09/15 02:30:57;;;;;;;194.77;56.60;;;12.50;99.90;;;;;;5013439;28;20029;-69
2022/09/15 02:33:28;;;;;;;192.70;57.60;;;12.60;99.90;;;;;;5014367;28;20041;-68
2022/09/15 02:35:55;;;;;;;194.95;57.38;;;12.60;99.90;;;;;;5002433;28;20500;-68
2022/09/15 02:38:22;;;;;;;185.77;55.15;;;12.60;99.90;;;;;;5018997;28;20067;-69
2022/09/15 02:40:49;;;;;;;183.82;56.03;;;12.60;99.90;;;;;;5001447;28;20049;-69
2022/09/15 02:43:17;;;;;;;188.60;59.30;;;12.70;99.90;;;;;;5018043;28;20048;-69
2022/09/15 02:45:44;;;;;;;181.75;59.97;;;12.70;99.90;;;;;;5016584;28;20043;-69
2022/09/15 02:48:11;;;;;;;196.68;60.67;;;12.60;99.90;;;;;;5017466;28;20450;-68
2022/09/15 02:50:38;;;;;;;185.88;58.17;;;12.70;99.90;;;;;;5016015;28;20511;-71
2022/09/15 02:53:05;;;;;;;196.77;59.13;;;12.60;99.90;;;;;;5018474;28;20052;-69
2022/09/15 02:55:32;;;;;;;184.15;57.33;;;12.60;99.90;;;;;;5019426;28;20041;-69
2022/09/15 02:57:59;;;;;;;198.68;57.80;;;12.60;99.90;;;;;;5018938;28;20044;-71
2022/09/15 03:00:27;;;;;;;190.00;60.53;;;12.60;99.90;;;;;;4999206;28;20317;-69
2022/09/15 03:02:54;;;;;;;203.00;66.80;;;12.70;99.90;;;;;;5002127;28;20039;-69
2022/09/15 03:05:26;;;;;;;174.18;61.72;;;12.70;99.90;;;;;;5016713;28;20041;-69
2022/09/15 03:07:54;;;;;;;213.68;68.00;;;12.70;99.90;;;;;;5019913;28;20033;-69
2022/09/15 03:10:22;;;;;;;193.13;61.55;;;12.70;99.90;;;;;;5014262;28;20056;-69
2022/09/15 03:12:51;;;;;;;224.60;66.60;;;12.60;99.90;;;;;;5023570;28;20061;-69
2022/09/15 03:15:21;;;;;;;220.18;65.75;;;12.50;99.90;;;;;;5021607;28;20515;-69
2022/09/15 03:17:48;;;;;;;204.15;66.28;;;12.50;99.90;;;;;;5004913;28;20049;-69
2022/09/15 03:20:23;;;;;;;200.80;63.45;;;12.50;99.90;;;;;;5004086;28;20442;-69
2022/09/15 03:22:49;;;;;;;201.65;65.70;;;12.50;99.90;;;;;;5006637;28;20561;-69
2022/09/15 03:25:17;;;;;;;207.88;64.57;;;12.50;99.90;;;;;;5004182;28;20450;-69
2022/09/15 03:27:44;;;;;;;176.80;61.13;;;12.50;99.90;;;;;;5001917;28;20045;-69
2022/09/15 03:30:14;;;;;;;183.15;60.28;;;12.60;99.90;;;;;;5021245;28;20057;-69
2022/09/15 03:32:41;;;;;;;181.85;58.38;;;12.50;99.90;;;;;;5020956;28;20052;-69
2022/09/15 03:35:08;;;;;;;167.65;58.65;;;12.50;99.90;;;;;;5020917;28;20049;-69
2022/09/15 03:37:35;;;;;;;162.15;57.20;;;12.50;99.90;;;;;;5022216;28;20455;-69
2022/09/15 03:40:03;;;;;;;149.60;52.42;;;12.60;99.90;;;;;;5021847;28;20054;-69
2022/09/15 03:42:29;;;;;;;134.88;49.58;;;12.60;99.90;;;;;;5022102;28;20095;-70
2022/09/15 03:44:56;;;;;;;123.38;50.83;;;12.60;99.90;;;;;;5019000;28;20064;-69
2022/09/15 03:47:23;;;;;;;129.43;50.70;;;12.60;99.90;;;;;;5019489;28;20053;-69
2022/09/15 03:49:50;;;;;;;125.38;50.08;;;12.60;99.90;;;;;;5022389;28;20076;-69
2022/09/15 03:52:16;;;;;;;114.38;45.50;;;12.50;99.90;;;;;;5021288;28;20042;-69
2022/09/15 03:54:43;;;;;;;109.88;45.60;;;12.40;99.90;;;;;;5020519;28;20045;-69
2022/09/15 03:57:10;;;;;;;113.78;45.15;;;12.40;99.90;;;;;;5019154;28;20553;-69
2022/09/15 03:59:37;;;;;;;112.75;46.58;;;12.40;99.90;;;;;;5020065;28;20604;-70
2022/09/15 04:02:04;;;;;;;114.00;44.50;;;12.40;99.90;;;;;;5021394;28;20129;-69
2022/09/15 04:04:30;;;;;;;113.97;45.33;;;12.30;99.90;;;;;;5018862;28;20037;-70
2022/09/15 04:06:57;;;;;;;109.53;45.03;;;12.40;99.90;;;;;;5021269;28;20029;-69
2022/09/15 04:09:24;;;;;;;110.13;45.40;;;12.40;99.90;;;;;;5020660;28;20037;-69
2022/09/15 04:11:51;;;;;;;113.22;47.42;;;12.40;99.90;;;;;;5019820;28;20036;-70
2022/09/15 04:14:18;;;;;;;129.35;48.80;;;12.40;99.90;;;;;;5018447;28;20137;-69
2022/09/15 04:16:45;;;;;;;126.80;50.33;;;12.40;99.90;;;;;;5012252;28;20523;-70
2022/09/15 04:19:11;;;;;;;118.75;47.05;;;12.50;99.90;;;;;;5013959;28;20046;-69
2022/09/15 04:21:38;;;;;;;114.55;44.38;;;12.50;99.90;;;;;;5001669;28;20053;-69
2022/09/15 04:24:05;;;;;;;115.38;45.72;;;12.50;99.90;;;;;;5003863;28;20060;-69
2022/09/15 04:26:34;;;;;;;109.35;46.35;;;12.50;99.90;;;;;;5019954;28;20045;-69
2022/09/15 04:29:03;;;;;;;106.70;42.80;;;12.50;99.90;;;;;;5019537;28;20045;-69
2022/09/15 04:31:32;;;;;;;120.80;45.42;;;12.40;99.90;;;;;;5017306;28;20464;-69
2022/09/15 04:33:59;;;;;;;120.60;45.88;;;12.40;99.90;;;;;;5003641;28;20046;-69
2022/09/15 04:36:27;;;;;;;125.70;48.92;;;12.40;99.90;;;;;;5018209;28;20045;-70
2022/09/15 04:38:55;;;;;;;126.95;49.42;;;12.40;99.90;;;;;;5020011;28;20048;-70
2022/09/15 04:41:23;;;;;;;133.95;52.38;;;12.40;99.90;;;;;;5017876;28;20510;-69
2022/09/15 04:43:50;;;;;;;137.02;52.75;;;12.40;99.90;;;;;;5022234;28;20507;-70
2022/09/15 04:46:17;;;;;;;146.05;54.38;;;12.50;99.90;;;;;;5001989;28;20077;-70
2022/09/15 04:48:44;;;;;;;140.25;53.10;;;12.50;99.90;;;;;;5013636;28;20119;-70
2022/09/15 04:51:14;;;;;;;137.25;52.17;;;12.60;99.90;;;;;;4999218;28;20423;-69
2022/09/15 04:53:41;;;;;;;155.00;55.05;;;12.60;99.90;;;;;;5002762;28;20050;-69
2022/09/15 04:56:14;;;;;;;148.23;54.45;;;12.60;99.90;;;;;;5018321;28;20046;-69
2022/09/15 04:58:47;;;;;;;156.65;56.20;;;12.60;99.90;;;;;;5020847;28;20057;-70
2022/09/15 05:01:20;;;;;;;168.70;57.35;;;12.60;99.90;;;;;;5018021;28;20048;-70
2022/09/15 05:03:48;;;;;;;166.30;54.72;;;12.40;99.90;;;;;;4997782;28;20614;-69
2022/09/15 05:06:20;;;;;;;166.80;56.45;;;12.50;99.90;;;;;;5000201;28;20089;-70
2022/09/15 05:08:52;;;;;;;160.18;56.35;;;12.50;99.90;;;;;;5021755;28;20047;-70
2022/09/15 05:11:19;;;;;;;179.05;57.67;;;12.40;99.90;;;;;;4995196;28;20068;-70
2022/09/15 05:13:47;;;;;;;182.50;58.28;;;12.50;99.90;;;;;;5021107;28;20041;-70
2022/09/15 05:16:19;;;;;;;173.32;58.53;;;12.50;99.90;;;;;;5001976;28;20056;-70
2022/09/15 05:18:47;;;;;;;188.43;61.58;;;12.50;99.90;;;;;;5019893;28;20546;-70
2022/09/15 05:21:16;;;;;;;183.23;62.58;;;12.40;99.90;;;;;;4999920;28;20057;-70
2022/09/15 05:23:43;;;;;;;193.73;62.08;;;12.40;99.90;;;;;;5000565;28;20045;-69
2022/09/15 05:26:21;;;;;;;193.45;59.17;;;12.50;99.90;;;;;;5002025;28;20068;-70
2022/09/15 05:28:49;;;;;;;157.82;53.33;;;12.40;99.90;;;;;;5020024;28;20041;-70
2022/09/15 05:31:24;;;;;;;174.18;57.28;;;12.30;99.90;;;;;;4998912;28;20511;-70
2022/09/15 05:33:51;;;;;;;166.30;55.83;;;12.30;99.90;;;;;;5014795;28;20143;-70
2022/09/15 05:36:20;;;;;;;155.77;53.90;;;12.30;99.90;;;;;;5019141;28;20052;-70
2022/09/15 05:38:46;;;;;;;154.48;54.13;;;12.30;99.90;;;;;;4998578;28;20053;-70
2022/09/15 05:41:15;;;;;;;142.68;54.08;;;12.30;99.90;;;;;;5017731;28;20049;-70
2022/09/15 05:43:43;;;;;;;116.93;47.53;;;12.40;99.90;;;;;;5017769;28;20048;-70
2022/09/15 05:46:11;;;;;;;131.57;46.13;;;12.30;99.90;;;;;;5019150;28;20052;-69
2022/09/15 05:48:38;;;;;;;127.70;46.70;;;12.40;99.90;;;;;;5001309;28;20057;-70
2022/09/15 05:51:05;;;;;;;113.53;47.03;;;12.40;99.90;;;;;;5015538;28;20046;-70
2022/09/15 05:53:35;;;;;;;115.82;47.22;;;12.40;99.90;;;;;;5016649;28;20676;-69
2022/09/15 05:56:08;;;;;;;116.10;46.92;;;12.40;99.90;;;;;;5019523;28;20542;-70
2022/09/15 05:58:38;;;;;;;123.13;46.60;;;12.50;99.90;;;;;;5001940;28;20044;-70
2022/09/15 06:01:11;;;;;;;116.53;46.85;;;12.50;99.90;;;;;;5000132;28;20053;-70
2022/09/15 06:03:38;;;;;;;100.38;39.65;;;12.50;99.90;;;;;;5014322;28;20068;-70
2022/09/15 06:06:05;;;;;;;104.25;41.22;;;12.50;99.90;;;;;;4998037;28;20047;-69
2022/09/15 06:08:54;;;;;;;106.25;42.22;;;12.50;99.90;;;;;;5015776;28;20129;-70
2022/09/15 06:11:34;;;;;;;95.93;40.42;;;12.60;99.90;;;;;;4995872;28;20047;-70
2022/09/15 06:14:02;;;;;;;96.15;39.80;;;12.50;99.90;;;;;;5018828;28;20041;-69
2022/09/15 06:16:31;;;;;;;101.13;43.50;;;12.50;99.90;;;;;;5015551;28;20080;-70
2022/09/15 06:19:00;;;;;;;91.60;42.42;;;12.50;99.90;;;;;;5018562;28;20105;-69
2022/09/15 06:21:28;;;;;;;92.45;41.67;;;12.60;99.90;;;;;;5012360;28;20083;-69
2022/09/15 06:23:57;;;;;;;99.05;43.17;;;12.60;99.90;;;;;;5019354;28;20566;-70
2022/09/15 06:26:25;;;;;;;102.28;44.50;;;12.60;99.90;;;;;;5016193;28;20065;-72
2022/09/15 06:28:57;;;;;;;90.43;41.85;;;12.70;99.90;;;;;;5016446;28;20685;-71
2022/09/15 06:31:25;;;;;;;79.55;40.53;;;12.60;99.90;;;;;;4998117;28;20053;-73
2022/09/15 06:33:54;;;;;;;85.47;41.20;;;12.60;99.90;;;;;;5019632;28;20041;-73
2022/09/15 06:36:24;;;;;;;87.00;41.17;;;12.70;99.90;;;;;;5017521;28;20148;-73
2022/09/15 06:38:52;;;;;;;90.72;41.22;;;12.70;99.90;;;;;;5018877;28;20045;-73
2022/09/15 06:41:19;;;;;;;92.55;39.47;;;12.80;99.90;;;;;;5015887;28;20488;-73
2022/09/15 06:43:48;;;;;;;83.03;42.05;;;12.80;99.90;;;;;;5012702;28;20492;-73
2022/09/15 06:46:20;;;;;;;90.80;41.28;;;12.90;99.90;;;;;;5018034;28;20056;-72
2022/09/15 06:48:47;;;;;;;93.00;42.40;;;12.80;99.90;;;;;;5013944;28;20046;-73
2022/09/15 06:51:16;;;;;;;92.05;43.88;;;12.70;99.90;;;;;;4998647;28;20092;-72
2022/09/15 06:53:43;;;;;;;90.22;40.38;;;12.80;99.90;;;;;;5000344;28;20050;-73
2022/09/15 06:56:13;;;;;;;93.55;42.17;;;12.70;99.90;;;;;;5016395;28;20495;-73
2022/09/15 06:58:42;;;;;;;95.07;43.65;;;12.70;99.90;;;;;;5001384;28;20534;-73
2022/09/15 07:01:18;;;;;;;96.30;41.83;;;12.80;99.90;;;;;;5017347;28;20519;-73
2022/09/15 07:03:44;;;;;;;88.07;39.63;;;12.70;99.90;;;;;;4989039;28;20065;-73
2022/09/15 07:06:11;;;;;;;91.57;42.55;;;12.70;99.90;;;;;;5000106;28;20416;-72
2022/09/15 07:08:39;;;;;;;95.97;43.10;;;12.70;99.90;;;;;;5017662;28;20057;-76
2022/09/15 07:11:07;;;;;;;93.43;43.13;;;12.70;99.90;;;;;;4993968;28;20046;-77
2022/09/15 07:13:34;;;;;;;82.43;38.95;;;12.70;99.90;;;;;;5002154;28;20045;-77
2022/09/15 07:16:02;;;;;;;81.40;38.92;;;12.70;99.90;;;;;;4998441;28;20049;-77
2022/09/15 07:18:30;;;;;;;85.15;38.92;;;12.60;99.90;;;;;;4999596;28;20529;-76
2022/09/15 07:21:08;;;;;;;90.75;40.72;;;12.60;99.90;;;;;;5001355;28;20423;-77
2022/09/15 07:23:36;;;;;;;88.65;39.88;;;12.70;99.90;;;;;;5002805;28;20049;-77
2022/09/15 07:26:11;;;;;;;81.63;40.65;;;12.70;99.90;;;;;;5004843;28;20041;-77
2022/09/15 07:28:41;;;;;;;93.40;40.55;;;12.70;99.90;;;;;;5022266;28;20053;-77
2022/09/15 07:31:09;;;;;;;84.85;38.45;;;12.70;99.90;;;;;;5003114;28;20065;-76
2022/09/15 07:33:36;;;;;;;82.03;38.08;;;12.70;99.90;;;;;;5002982;28;20045;-76
2022/09/15 07:36:05;;;;;;;77.95;38.67;;;12.90;99.90;;;;;;5041520;22;20056;-75
2022/09/15 07:38:33;;;;;;;78.60;37.25;;;12.80;99.90;;;;;;5021473;28;20042;-77
2022/09/15 07:41:09;;;;;;;77.13;38.13;;;12.80;99.90;;;;;;5020760;28;20037;-77
2022/09/15 07:43:37;;;;;;;76.20;35.58;;;12.80;99.90;;;;;;5014476;28;20037;-77
2022/09/15 07:46:04;;;;;;;72.63;38.65;;;12.90;99.90;;;;;;4991547;28;20674;-77
2022/09/15 07:48:32;;;;;;;65.90;36.20;;;12.80;99.90;;;;;;5001496;28;20128;-76
2022/09/15 07:50:58;;;;;;;63.72;34.60;;;12.90;99.90;;;;;;5014001;28;20514;-76
2022/09/15 07:53:29;;;;;;;54.20;30.60;;;12.90;99.90;;;;;;5006262;28;20729;-76
2022/09/15 07:55:55;;;;;;;51.88;31.27;;;12.80;99.90;;;;;;5019461;28;20056;-77
2022/09/15 07:58:23;;;;;;;61.15;30.70;;;12.90;99.90;;;;;;5013475;28;20045;-76
2022/09/15 08:00:50;;;;;;;54.33;31.83;;;12.90;99.90;;;;;;5014710;28;20520;-76
2022/09/15 08:03:17;;;;;;;50.85;31.15;;;12.90;99.90;;;;;;5003227;28;20056;-76
2022/09/15 08:05:44;;;;;;;57.40;31.77;;;13.00;99.90;;;;;;5013760;28;20128;-75
2022/09/15 08:08:12;;;;;;;53.22;29.20;;;13.10;99.90;;;;;;5020271;28;20045;-76
2022/09/15 08:10:39;;;;;;;52.28;29.83;;;13.10;99.90;;;;;;4990217;28;20033;-77
2022/09/15 08:13:07;;;;;;;44.53;27.98;;;13.20;99.90;;;;;;4994609;28;20129;-76
2022/09/15 08:15:37;;;;;;;50.30;29.60;;;13.30;99.90;;;;;;4994469;28;20045;-75
2022/09/15 08:18:05;;;;;;;38.15;25.90;;;13.40;99.90;;;;;;5012792;28;20053;-76
2022/09/15 08:20:32;;;;;;;46.00;27.58;;;13.40;99.90;;;;;;5015881;28;20399;-76
2022/09/15 08:22:59;;;;;;;38.85;27.70;;;13.50;99.90;;;;;;5007436;28;20072;-75
2022/09/15 08:25:25;;;;;;;38.33;24.70;;;13.50;99.90;;;;;;5004682;28;20042;-77
2022/09/15 08:27:53;;;;;;;37.78;25.27;;;13.60;99.90;;;;;;4988390;28;20056;-76
2022/09/15 08:30:20;;;;;;;43.80;25.50;;;13.50;99.90;;;;;;5009739;28;20046;-76
2022/09/15 08:32:48;;;;;;;40.65;24.55;;;13.60;99.90;;;;;;5025697;28;20692;-77
2022/09/15 08:35:16;;;;;;;32.92;22.98;;;13.40;99.90;;;;;;4992140;28;20403;-76
2022/09/15 08:37:42;;;;;;;33.38;23.25;;;13.50;99.90;;;;;;5012453;28;20048;-75
2022/09/15 08:40:16;;;;;;;30.52;22.95;;;13.50;99.90;;;;;;5015842;28;20049;-76
2022/09/15 08:42:47;;;;;;;31.58;23.65;;;13.50;99.90;;;;;;5014560;28;20087;-76
2022/09/15 08:45:40;;;;;;;27.98;23.42;;;13.60;99.90;;;;;;5017428;28;20526;-76
2022/09/15 08:48:14;;;;;;;27.80;21.35;;;13.70;99.90;;;;;;4999959;28;20045;-76
2022/09/15 08:50:46;;;;;;;30.10;21.52;;;13.80;99.90;;;;;;5008819;28;20616;-77
2022/09/15 08:53:17;;;;;;;26.65;22.05;;;13.80;99.90;;;;;;5020150;28;20483;-76
2022/09/15 08:55:53;;;;;;;28.45;21.25;;;13.90;99.90;;;;;;4996568;28;20045;-75
2022/09/15 08:58:22;;;;;;;27.73;23.27;;;14.00;99.90;;;;;;5021348;28;20037;-76
2022/09/15 09:00:53;;;;;;;27.13;24.02;;;14.00;99.90;;;;;;5017599;28;20618;-76
2022/09/15 09:03:44;;;;;;;25.30;22.27;;;14.10;99.90;;;;;;5015734;28;20124;-77
2022/09/15 09:06:31;;;;;;;31.38;23.67;;;14.20;99.90;;;;;;4991034;28;20124;-78
2022/09/15 09:09:20;;;;;;;26.15;23.27;;;14.20;99.90;;;;;;5022929;28;20046;-77
2022/09/15 09:12:14;;;;;;;29.08;22.00;;;14.20;99.90;;;;;;5016114;28;20050;-78
2022/09/15 09:14:57;;;;;;;19.90;18.05;;;14.10;99.90;;;;;;5013952;28;20456;-77
2022/09/15 09:17:51;;;;;;;22.50;19.75;;;14.00;99.90;;;;;;5013814;28;20446;-77
2022/09/15 09:20:43;;;;;;;25.85;20.80;;;14.10;99.90;;;;;;5009468;28;20045;-77
2022/09/15 09:23:14;;;;;;;22.98;19.30;;;14.20;99.90;;;;;;4985798;28;20129;-76
2022/09/15 09:25:41;;;;;;;22.80;20.48;;;14.20;99.90;;;;;;4996405;28;20038;-77
2022/09/15 09:28:34;;;;;;;22.48;20.42;;;14.10;99.90;;;;;;5011733;28;20056;-77
2022/09/15 09:31:07;;;;;;;23.38;20.92;;;14.20;99.90;;;;;;5008512;28;20049;-77
2022/09/15 09:34:06;;;;;;;28.65;19.30;;;14.30;99.90;;;;;;4997586;28;20042;-77
2022/09/15 09:36:33;;;;;;;23.80;20.10;;;14.30;99.90;;;;;;5013916;28;20119;-77
2022/09/15 09:39:02;;;;;;;23.38;20.63;;;14.50;99.90;;;;;;5008878;28;20045;-76
2022/09/15 09:41:35;;;;;;;23.13;21.05;;;14.60;99.90;;;;;;5009259;28;21377;-79
2022/09/15 09:44:04;;;;;;;23.10;20.90;;;14.80;99.90;;;;;;5013673;28;20598;-77
2022/09/15 09:46:31;;;;;;;22.40;20.02;;;15.10;99.90;;;;;;5008729;28;20038;-78
2022/09/15 09:49:09;;;;;;;23.27;21.35;;;15.20;99.90;;;;;;5019387;28;20045;-79
2022/09/15 09:51:38;;;;;;;23.05;21.10;;;15.60;99.90;;;;;;5008171;28;20087;-77
2022/09/15 09:54:08;;;;;;;23.88;21.88;;;15.90;99.90;;;;;;5000157;28;20717;-77
2022/09/15 09:56:35;;;;;;;24.98;22.73;;;15.90;99.90;;;;;;5012146;28;20152;-77
2022/09/15 09:59:02;;;;;;;25.50;23.30;;;16.00;99.90;;;;;;5013346;28;20072;-77
2022/09/15 10:01:29;;;;;;;24.42;22.33;;;15.70;99.90;;;;;;5007296;28;20044;-77
2022/09/15 10:04:18;;;;;;;23.88;21.60;;;15.70;99.90;;;;;;5006190;28;20161;-78
2022/09/15 10:06:45;;;;;;;23.33;21.40;;;15.80;99.90;;;;;;4998848;28;20061;-77
2022/09/15 10:09:17;;;;;;;22.52;20.73;;;15.70;99.90;;;;;;5010484;28;20411;-77
2022/09/15 10:11:51;;;;;;;21.38;19.67;;;15.80;99.90;;;;;;5004984;28;20048;-78
2022/09/15 10:14:19;;;;;;;23.65;21.58;;;15.90;99.90;;;;;;5011597;28;20052;-78
2022/09/15 10:16:59;;;;;;;22.13;20.35;;;15.90;99.90;;;;;;5001907;28;20041;-76
2022/09/15 10:19:28;;;;;;;21.35;19.73;;;16.00;99.90;;;;;;5009600;28;20489;-78
2022/09/15 10:21:57;;;;;;;23.00;20.88;;;16.20;99.90;;;;;;5011795;28;20037;-77
2022/09/15 10:24:30;;;;;;;23.85;21.40;;;16.30;99.90;;;;;;5004645;28;20087;-81
2022/09/15 10:27:19;;;;;;;23.13;20.80;;;16.70;99.90;;;;;;5035059;28;20319;-79
2022/09/15 10:29:46;;;;;;;23.42;21.35;;;16.70;99.90;;;;;;5014630;28;20042;-76
2022/09/15 10:32:22;;;;;;;24.20;22.23;;;16.60;99.90;;;;;;5009185;28;20057;-77
2022/09/15 10:35:12;;;;;;;21.98;19.95;;;16.80;99.90;;;;;;5000763;28;20337;-76
2022/09/15 10:38:10;;;;;;;22.52;20.67;;;17.20;99.90;;;;;;4994211;28;20064;-76
2022/09/15 10:40:43;;;;;;;22.67;20.55;;;17.30;99.90;;;;;;4998148;28;20042;-76
2022/09/15 10:43:30;;;;;;;22.42;20.92;;;17.50;99.90;;;;;;5002279;28;20038;-75
2022/09/15 10:46:11;;;;;;;22.48;20.63;;;17.20;99.90;;;;;;5009979;28;20041;-75
2022/09/15 10:49:03;;;;;;;22.30;20.27;;;16.80;99.90;;;;;;5010689;28;20808;-75
2022/09/15 10:51:46;;;;;;;22.77;21.08;;;16.60;99.90;;;;;;5012284;28;20049;-76
2022/09/15 10:54:38;;;;;;;21.70;20.30;;;16.40;99.90;;;;;;5011083;28;20143;-76
2022/09/15 10:57:35;;;;;;;21.50;20.05;;;16.30;99.90;;;;;;5017113;28;20064;-78
2022/09/15 11:00:26;;;;;;;22.08;20.48;;;16.10;99.90;;;;;;4981102;28;20401;-73
2022/09/15 11:03:02;;;;;;;22.80;21.00;;;15.80;99.90;;;;;;5013672;28;20045;-74
2022/09/15 11:06:05;;;;;;;21.15;19.58;;;15.80;99.90;;;;;;5008472;28;21013;-73
2022/09/15 11:09:09;;;;;;;21.10;19.55;;;15.80;99.90;;;;;;5000908;28;20668;-74
2022/09/15 11:11:54;;;;;;;21.75;20.05;;;16.10;99.90;;;;;;5006558;28;20041;-75
2022/09/15 11:14:50;;;;;;;21.75;19.83;;;16.20;99.90;;;;;;5007380;28;20052;-72
2022/09/15 11:17:34;;;;;;;22.45;20.55;;;16.10;99.90;;;;;;4996765;28;20033;-74
2022/09/15 11:20:13;;;;;;;21.65;19.90;;;16.10;99.90;;;;;;5006249;28;20045;-75
2022/09/15 11:22:51;;;;;;;21.75;19.85;;;16.20;99.90;;;;;;4991682;28;20053;-75
2022/09/15 11:25:32;;;;;;;22.08;20.30;;;16.20;99.90;;;;;;5005182;28;20230;-73
2022/09/15 11:28:16;;;;;;;21.08;19.58;;;16.10;99.90;;;;;;5010284;28;20095;-73
2022/09/15 11:30:57;;;;;;;20.80;19.17;;;16.40;99.90;;;;;;5008148;28;20045;-75
2022/09/15 11:33:52;;;;;;;21.02;19.58;;;16.70;99.90;;;;;;5016335;28;20057;-75
2022/09/15 11:36:27;;;;;;;20.48;18.92;;;16.40;99.90;;;;;;5011194;28;20057;-74
2022/09/15 11:39:02;;;;;;;21.70;19.50;;;16.30;99.90;;;;;;5016039;28;20523;-76
2022/09/15 11:41:40;;;;;;;;;;;16.20;99.90;;;;;;4998234;28;20772;-75
2022/09/15 11:44:29;;;;;;;20.15;18.67;;;16.10;99.90;;;;;;5008660;28;19925;-75
2022/09/15 11:47:21;;;;;;;20.30;18.73;;;16.10;99.90;;;;;;5014838;28;20132;-75
2022/09/15 11:50:16;;;;;;;20.70;19.23;;;16.10;99.90;;;;;;5010882;28;20084;-74
2022/09/15 11:53:21;;;;;;;20.77;18.88;;;16.20;99.90;;;;;;4996449;28;20049;-74
2022/09/15 11:55:58;;;;;;;20.55;18.90;;;16.40;99.90;;;;;;4998820;28;20515;-74
2022/09/15 11:58:33;;;;;;;20.70;18.98;;;16.30;99.90;;;;;;5014227;28;20709;-75
2022/09/15 12:01:07;;;;;;;20.40;18.48;;;16.30;99.90;;;;;;5015348;28;20060;-76
2022/09/15 12:04:01;;;;;;;21.23;19.50;;;16.30;99.90;;;;;;5013489;28;20045;-74
2022/09/15 12:06:42;;;;;;;21.70;20.05;;;16.50;99.90;;;;;;5005175;28;20050;-74
2022/09/15 12:09:15;;;;;;;21.17;19.50;;;16.60;99.90;;;;;;5012060;28;20041;-75
2022/09/15 12:12:14;;;;;;;21.33;19.58;;;16.90;99.90;;;;;;4999274;28;20518;-75
2022/09/15 12:14:43;;;;;;;32.92;19.90;;;16.90;99.90;;;;;;4996184;28;20077;-74
2022/09/15 12:17:30;;;;;;;20.85;19.13;;;17.00;99.90;;;;;;5015092;28;20045;-74
2022/09/15 12:20:12;;;;;;;20.77;19.20;;;16.80;99.90;;;;;;5015783;28;20052;-75
2022/09/15 12:23:01;;;;;;;21.08;19.20;;;17.00;99.90;;;;;;5009600;28;20046;-75
2022/09/15 12:25:39;;;;;;;19.85;18.50;;;17.20;99.90;;;;;;5008925;28;20129;-74
2022/09/15 12:28:21;;;;;;;21.77;19.92;;;17.10;99.90;;;;;;5006025;28;20538;-74
2022/09/15 12:31:09;;;;;;;20.55;19.05;;;17.10;99.90;;;;;;5013213;28;20074;-73
2022/09/15 12:33:42;;;;;;;19.73;18.27;;;17.40;99.90;;;;;;5007878;28;20614;-75
2022/09/15 12:36:47;;;;;;;21.45;20.05;;;17.70;99.90;;;;;;5001690;28;20042;-72
2022/09/15 12:39:23;;;;;;;20.95;19.48;;;17.70;99.90;;;;;;4994276;28;20060;-73
2022/09/15 12:41:54;;;;;;;20.88;19.27;;;17.80;99.90;;;;;;5016202;28;20503;-73
2022/09/15 12:44:28;;;;;;;21.05;19.63;;;17.70;99.90;;;;;;5003081;28;20397;-73
2022/09/15 12:46:57;;;;;;;20.42;18.92;;;17.80;99.90;;;;;;5009371;28;20068;-73
2022/09/15 12:49:31;;;;;;;20.70;19.10;;;17.70;99.90;;;;;;5003272;28;20041;-73
2022/09/15 12:52:02;;;;;;;20.50;18.83;;;17.80;99.90;;;;;;5003753;28;20030;-73
2022/09/15 12:54:31;;;;;;;20.80;19.30;;;17.90;99.90;;;;;;4995962;28;21061;-73